Fort Lauderdale, FL

10:31 AM EDT on August 28, 2015 (GMT -0400)
ICW @ Oakland Park Bridge | | Change Station
CLOSE
Current Station
Personal Weather Station
Location: Ft. Lauderdale, FL
Elevation: 8 ft
Nearby Weather Stations

Elev 8 ft 26.16 °N, 80.11 °W | Updated 50 seconds ago

Overcast
Overcast
88.1 °F
Feels Like 100 °F
N
1.9
Wind Variable Wind from SSE
Gusts 7.0 mph

Today
High -- | Low -- °F
--% Chance of Precip.
Yesterday
High -- | Low -- °F
Precip. -- in
6:58 AM 7:44 PM
Waxing Gibbous, 98% visible
Pressure 30.02 in
Visibility 10.0 miles
Clouds Scattered Clouds 2400 ft
Mostly Cloudy 7000 ft
Heat Index 100 °F
Dew Point 77 °F
Humidity 70%
Rainfall 0.00 in
Snow Depth Not available.
UV 3 out of 12
Pollen 2.70 out of 12
Air Quality Not available.
Flu Activity Not available.
METAR KFXE 281353Z 17010KT 10SM SCT024 BKN070 31/24 A3001 RMK AO2 SLP165 T03060239
Pressure 30.02 in
Visibility 10.0 miles
Clouds Scattered Clouds 2400 ft
Mostly Cloudy 7000 ft
Heat Index 100 °F
Dew Point 77 °F
Humidity 70%
Rainfall 0.00 in
Snow Depth Not available.
UV 3 out of 12
Pollen 2.70 out of 12
Air Quality Not available.
Flu Activity Not available.
METAR KFXE 281353Z 17010KT 10SM SCT024 BKN070 31/24 A3001 RMK AO2 SLP165 T03060239
Tropical Storm Erika remains unorganized as it travels through the northeast Caribbean Sea. Puerto Rico could receive over a foot of rain from Erika, which could help the ongoing drought but could also produce dangerous mudslides. Erika is not forecast to reach hurricane strength until Monday when it curves northward along the east coast of Florida. Follow the live blog

Nowcast | as of 8:34 am EDT on August 28, 2015

Isolated to scattered showers and a few embedded thunderstorms will be possible across most of South Florida including Lake Okeechobee and the Gulf waters through the morning.

×

10-Day Weather Forecast

×

Almanac

Astronomy

Aug. 28, 2015 Rise Set
Actual Time
Civil Twilight
Nautical Twilight
Astronomical Twilight
Moon
Length of Visible Light
Length of Day
Tomorrow will be .
, % of the Moon is Illuminated

Today's Extremes

State Highs State Lows

Community

WunderPhotos

Upload Photos

1,850,386 photos uploaded!

WunderBlogs® & News

Nearby

Air Quality

  Air Quality AQ Index Pollutant
Not available.

Snow Depth

Station Depth Elevation

Earthquake Activity

City Distance Mag. Time & Date
Minimum magnitude displayed is 2.5.

Coastal Water Temperatures

Place Temperature

Stations

Nearby Weather Stations

Station Location Temp. Windchill Dew Point Humidity Wind Precip. Elev Updated Type